Time;durP1;ratioP1;P1;durP2;ratioP2;P2;SDS_P1;SDS_P2;PMS_P1;PMS_P2;Temp;Humidity;BMP_temperature;BMP_pressure;BME280_temperature;BME280_humidity;BME280_pressure;Samples;Min_cycle;Max_cycle;Signal;HPM_P1;HPM_P2
2022/12/22 03:27:24;;;;;;;47.00;5.70;;;;;;;8.19;100.00;99672.13;5107198;28;20031;-71
2022/12/22 03:29:49;;;;;;;46.33;5.70;;;;;;;8.20;100.00;99672.97;5118273;28;20035;-71
2022/12/22 03:32:15;;;;;;;36.83;5.22;;;;;;;8.17;100.00;99659.97;5104888;28;20043;-71
2022/12/22 03:34:40;;;;;;;42.10;5.72;;;;;;;8.17;100.00;99668.84;5122643;28;20411;-71
2022/12/22 03:37:05;;;;;;;59.05;7.35;;;;;;;8.15;100.00;99672.78;5127904;28;20087;-70
2022/12/22 03:39:31;;;;;;;46.88;6.78;;;;;;;8.06;100.00;99671.38;5108382;28;20039;-71
2022/12/22 03:47:24;;;;;;;35.92;6.72;;;;;;;8.08;100.00;99666.59;5109148;28;20050;-71
2022/12/22 03:49:50;;;;;;;35.42;5.97;;;;;;;8.02;100.00;99659.44;5118562;28;20031;-71
2022/12/22 03:52:15;;;;;;;30.63;5.95;;;;;;;7.97;100.00;99657.38;5087921;28;20482;-71
2022/12/22 03:54:40;;;;;;;35.15;6.25;;;;;;;7.95;100.00;99648.72;5115580;28;20555;-71
2022/12/22 03:57:06;;;;;;;33.08;7.05;;;;;;;8.07;100.00;99664.97;5113410;28;20031;-71
2022/12/22 03:59:31;;;;;;;37.28;5.78;;;;;;;8.06;100.00;99668.69;5105852;28;20129;-71
2022/12/22 04:01:56;;;;;;;40.20;6.00;;;;;;;8.06;100.00;99663.31;5118018;28;20424;-71
2022/12/22 04:04:24;;;;;;;34.33;5.97;;;;;;;8.05;100.00;99662.50;5106861;28;20509;-71
2022/12/22 04:06:50;;;;;;;43.33;6.20;;;;;;;7.98;100.00;99654.50;5111847;28;20039;-71
2022/12/22 04:09:16;;;;;;;33.55;5.88;;;;;;;8.07;100.00;99659.59;5112757;28;20478;-71
2022/12/22 04:14:25;;;;;;;37.25;5.63;;;;;;;8.15;100.00;99648.66;5090577;28;20565;-71
2022/12/22 04:16:50;;;;;;;26.95;5.00;;;;;;;8.04;100.00;99619.84;5109514;28;20040;-70
2022/12/22 04:19:16;;;;;;;40.40;6.38;;;;;;;8.21;100.00;99640.59;5126532;27;20034;-71
2022/12/22 04:21:42;;;;;;;37.85;5.07;;;;;;;8.17;100.00;99639.38;5101443;28;20047;-71
2022/12/22 04:24:09;;;;;;;33.70;5.53;;;;;;;8.19;100.00;99645.34;5115713;28;20055;-71
2022/12/22 04:26:35;;;;;;;33.65;5.43;;;;;;;8.21;100.00;99631.72;5105869;28;20110;-71
2022/12/22 04:29:00;;;;;;;40.05;6.00;;;;;;;8.22;100.00;99631.53;5109348;28;20526;-71
2022/12/22 04:31:25;;;;;;;37.63;5.60;;;;;;;8.19;100.00;99623.09;5111388;28;20502;-71
2022/12/22 04:33:51;;;;;;;44.05;5.72;;;;;;;8.16;100.00;99628.88;5083778;28;20062;-71
2022/12/22 04:36:16;;;;;;;37.97;5.90;;;;;;;8.22;100.00;99628.03;5114758;28;20051;-71
2022/12/22 04:38:42;;;;;;;35.60;6.10;;;;;;;8.23;100.00;99627.81;5105537;28;20461;-71
2022/12/22 04:41:08;;;;;;;36.67;5.43;;;;;;;8.21;100.00;99615.66;5090473;28;20039;-71
2022/12/22 04:43:34;;;;;;;33.83;5.22;;;;;;;8.14;100.00;99610.31;5096320;28;20035;-71
2022/12/22 04:45:59;;;;;;;30.00;5.78;;;;;;;8.26;100.00;99615.03;5084743;28;20058;-71
2022/12/22 04:48:27;;;;;;;32.80;5.93;;;;;;;8.23;100.00;99610.91;5096832;28;20592;-71
2022/12/22 04:50:54;;;;;;;37.15;6.00;;;;;;;8.28;100.00;99611.09;5108328;28;20405;-71
2022/12/22 04:53:21;;;;;;;26.67;5.72;;;;;;;8.25;100.00;99592.78;5105262;28;20016;-71
2022/12/22 04:55:49;;;;;;;37.15;6.85;;;;;;;8.25;100.00;99611.53;5114523;28;20043;-70
2022/12/22 04:58:14;;;;;;;42.17;7.47;;;;;;;8.35;100.00;99611.06;5084328;28;20509;-71
2022/12/22 05:00:40;;;;;;;35.35;6.25;;;;;;;8.22;100.00;99588.66;5110838;28;20053;-71
2022/12/22 05:03:06;;;;;;;29.30;6.93;;;;;;;8.39;100.00;99613.13;5109024;28;20061;-71
2022/12/22 05:05:48;;;;;;;37.90;7.95;;;;;;;8.33;100.00;99603.22;5105746;28;20061;-71
2022/12/22 05:08:14;;;;;;;33.40;7.13;;;;;;;8.27;100.00;99596.03;5085336;28;20382;-71
2022/12/22 05:10:39;;;;;;;30.13;8.05;;;;;;;8.36;100.00;99600.13;5112151;28;20024;-70
2022/12/22 05:13:05;;;;;;;29.65;7.70;;;;;;;8.39;100.00;99593.53;5108300;28;20036;-70
2022/12/22 05:15:47;;;;;;;35.97;8.88;;;;;;;8.39;100.00;99594.38;5104299;28;20032;-71
2022/12/22 05:18:13;;;;;;;38.95;9.65;;;;;;;8.19;100.00;99574.84;5115522;28;20016;-71
2022/12/22 05:20:38;;;;;;;42.53;9.60;;;;;;;8.34;100.00;99591.47;5103965;28;20031;-70
2022/12/22 05:23:03;;;;;;;39.40;9.98;;;;;;;8.26;100.00;99585.53;5106855;28;20064;-70
2022/12/22 05:25:29;;;;;;;51.70;10.88;;;;;;;8.20;100.00;99581.84;5112772;28;20036;-71
2022/12/22 05:27:55;;;;;;;43.65;11.15;;;;;;;8.29;100.00;99580.56;5103771;28;20035;-70
2022/12/22 05:30:21;;;;;;;44.63;11.55;;;;;;;8.22;100.00;99575.25;5115560;28;20038;-72
2022/12/22 05:32:47;;;;;;;43.67;12.55;;;;;;;8.23;100.00;99568.84;5108984;28;20398;-71
2022/12/22 05:35:13;;;;;;;46.35;12.13;;;;;;;8.13;100.00;99554.28;5108230;28;20036;-71
2022/12/22 05:37:38;;;;;;;48.85;12.57;;;;;;;8.17;100.00;99568.88;5116199;28;20088;-71
2022/12/22 05:40:05;;;;;;;44.97;11.70;;;;;;;8.28;100.00;99567.38;5102170;28;20036;-71
2022/12/22 05:42:36;;;;;;;53.15;12.80;;;;;;;8.27;100.00;99569.22;5113817;28;20039;-71
2022/12/22 05:45:07;;;;;;;45.65;12.65;;;;;;;8.23;100.00;99560.81;5109416;28;20032;-71
2022/12/22 05:47:33;;;;;;;42.70;12.38;;;;;;;8.18;100.00;99559.81;5105890;28;20150;-71
2022/12/22 05:49:59;;;;;;;56.40;12.85;;;;;;;8.17;100.00;99552.81;5116400;28;20027;-70
2022/12/22 05:52:25;;;;;;;45.95;12.30;;;;;;;8.14;100.00;99554.03;5108921;28;20081;-70
2022/12/22 05:54:50;;;;;;;47.92;12.95;;;;;;;8.20;100.00;99560.41;5116247;28;20036;-70
2022/12/22 05:57:16;;;;;;;50.22;12.57;;;;;;;8.17;100.00;99555.47;5115321;28;20040;-70
2022/12/22 05:59:41;;;;;;;45.15;11.57;;;;;;;8.16;100.00;99554.66;5108100;28;20042;-70
2022/12/22 06:02:07;;;;;;;44.50;11.30;;;;;;;8.22;100.00;99558.34;5102393;28;20054;-70
2022/12/22 06:04:32;;;;;;;51.08;12.35;;;;;;;8.23;100.00;99558.13;5109509;28;20038;-70
2022/12/22 06:06:57;;;;;;;45.20;12.30;;;;;;;8.21;100.00;99549.50;5112958;28;20104;-70
2022/12/22 06:09:23;;;;;;;42.00;11.68;;;;;;;8.18;100.00;99543.75;5117039;28;20092;-70
2022/12/22 06:11:48;;;;;;;39.78;11.52;;;;;;;8.17;100.00;99547.44;5107597;28;20062;-70
2022/12/22 06:14:13;;;;;;;53.90;12.75;;;;;;;8.25;100.00;99555.25;5120254;28;20052;-70
2022/12/22 06:16:59;;;;;;;55.33;12.82;;;;;;;8.19;100.00;99545.38;5111677;28;20032;-70
2022/12/22 06:19:24;;;;;;;48.25;12.02;;;;;;;8.20;100.00;99557.72;5056741;28;20507;-70
2022/12/22 06:21:50;;;;;;;48.60;11.77;;;;;;;8.14;100.00;99553.22;5081238;28;20044;-70
2022/12/22 06:24:15;;;;;;;46.63;12.68;;;;;;;8.15;100.00;99545.00;5067675;28;20044;-70
2022/12/22 06:26:40;;;;;;;45.78;12.93;;;;;;;8.21;100.00;99560.22;5076497;28;20120;-71
2022/12/22 06:29:09;;;;;;;58.58;13.93;;;;;;;8.15;100.00;99560.25;5058394;28;20063;-70
2022/12/22 06:31:34;;;;;;;47.63;13.93;;;;;;;8.08;100.00;99559.44;5086316;28;20092;-70
2022/12/22 06:34:00;;;;;;;51.08;13.60;;;;;;;8.09;100.00;99556.56;5095368;28;20063;-70
2022/12/22 06:36:25;;;;;;;47.10;13.43;;;;;;;7.97;100.00;99528.78;5067124;28;20035;-70
2022/12/22 06:38:53;;;;;;;42.17;14.18;;;;;;;8.16;100.00;99557.34;5057278;28;20053;-70
2022/12/22 06:43:07;;;;;;;43.75;13.07;;;;;;;7.98;100.00;99531.28;5091489;28;20431;-70
2022/12/22 06:44:04;;;;;;;45.03;12.68;;;;;;;8.15;100.00;99560.25;5081566;28;20033;-70
2022/12/22 06:46:30;;;;;;;51.15;13.85;;;;;;;8.07;100.00;99547.09;5076380;28;20059;-70
2022/12/22 06:48:55;;;;;;;47.35;13.15;;;;;;;8.14;100.00;99564.75;5071177;28;20024;-70
2022/12/22 06:51:20;;;;;;;46.67;14.65;;;;;;;8.08;100.00;99552.25;5105934;28;20048;-69
2022/12/22 06:53:46;;;;;;;48.78;12.65;;;;;;;8.13;100.00;99551.59;5116867;28;20374;-69
2022/12/22 06:56:11;;;;;;;48.47;12.82;;;;;;;8.11;100.00;99534.91;5103354;28;20571;-70
2022/12/22 06:58:36;;;;;;;48.95;13.48;;;;;;;8.25;100.00;99555.25;5095694;28;20120;-69
2022/12/22 07:01:02;;;;;;;50.60;13.45;;;;;;;8.23;100.00;99557.31;5108643;28;20440;-69
2022/12/22 07:03:28;;;;;;;50.45;12.43;;;;;;;8.13;100.00;99539.00;5105814;28;20063;-69
2022/12/22 07:05:53;;;;;;;46.78;13.63;;;;;;;8.26;100.00;99550.72;5116033;28;20023;-70
2022/12/22 07:08:18;;;;;;;37.85;11.63;;;;;;;8.12;100.00;99523.16;5102872;28;20061;-70
2022/12/22 07:10:59;;;;;;;37.30;10.95;;;;;;;8.15;100.00;99523.56;5094953;28;20039;-69
2022/12/22 07:13:31;;;;;;;44.50;11.02;;;;;;;8.29;100.00;99542.25;5113491;28;20047;-69
2022/12/22 07:15:57;;;;;;;45.65;10.85;;;;;;;8.30;100.00;99544.69;5102295;28;20081;-69
2022/12/22 07:18:23;;;;;;;39.00;10.45;;;;;;;8.26;100.00;99543.47;5114450;28;20036;-69
2022/12/22 07:20:48;;;;;;;46.55;9.77;;;;;;;8.27;100.00;99550.47;5107826;28;20035;-70
2022/12/22 07:23:13;;;;;;;42.75;9.70;;;;;;;8.26;100.00;99548.84;5109851;28;20046;-69
2022/12/22 07:25:39;;;;;;;50.55;10.25;;;;;;;8.17;100.00;99521.47;5096368;28;20062;-69
2022/12/22 07:28:06;;;;;;;48.72;11.48;;;;;;;8.29;100.00;99544.91;5084225;28;20033;-69
2022/12/22 07:30:31;;;;;;;46.47;10.25;;;;;;;8.31;100.00;99549.03;5112508;28;20032;-70
2022/12/22 07:32:57;;;;;;;37.95;10.77;;;;;;;8.04;100.00;99510.81;5107336;28;20096;-70
2022/12/22 07:35:25;;;;;;;51.22;12.00;;;;;;;8.14;100.00;99543.31;5107139;28;20484;-70
2022/12/22 07:37:51;;;;;;;61.90;12.00;;;;;;;8.02;100.00;99512.09;5114502;28;20040;-69
2022/12/22 07:40:16;;;;;;;51.78;13.25;;;;;;;8.03;100.00;99522.59;5105387;28;20035;-69
2022/12/22 07:42:44;;;;;;;51.30;12.50;;;;;;;8.08;100.00;99529.97;5110570;28;20095;-69
2022/12/22 07:45:36;;;;;;;41.45;12.25;;;;;;;8.13;100.00;99530.16;5092142;28;20038;-70
2022/12/22 07:50:23;;;;;;;47.38;12.07;;;;;;;8.20;100.00;99537.13;5042545;28;20480;-68
2022/12/22 07:50:47;;;;;;;51.25;12.48;;;;;;;8.03;100.00;99509.19;5068606;28;20411;-70
2022/12/22 07:53:12;;;;;;;44.47;12.55;;;;;;;8.22;100.00;99540.41;5051348;28;20113;-70
2022/12/22 07:55:40;;;;;;;55.00;13.75;;;;;;;8.22;100.00;99542.28;5044636;28;20029;-74
2022/12/22 07:58:07;;;;;;;49.55;13.85;;;;;;;8.21;100.00;99537.94;5073387;28;20040;-71
2022/12/22 08:00:33;;;;;;;44.70;13.52;;;;;;;8.28;100.00;99536.06;5046060;28;20613;-70
2022/12/22 08:03:00;;;;;;;45.17;13.27;;;;;;;8.31;100.00;99538.31;5066761;28;20037;-72
2022/12/22 08:05:25;;;;;;;46.92;13.00;;;;;;;8.14;100.00;99510.34;5051806;28;20041;-69
2022/12/22 08:07:51;;;;;;;47.08;12.77;;;;;;;8.31;100.00;99535.63;5026324;28;20048;-68
2022/12/22 08:10:18;;;;;;;39.40;12.30;;;;;;;8.29;100.00;99539.56;5043367;28;20223;-69
2022/12/22 08:12:45;;;;;;;52.13;12.57;;;;;;;8.34;100.00;99537.84;5068318;28;20044;-68
2022/12/22 08:15:11;;;;;;;39.40;12.02;;;;;;;8.36;100.00;99543.00;5050257;28;20092;-70
2022/12/22 08:17:37;;;;;;;40.20;11.20;;;;;;;8.30;100.00;99530.47;5034435;28;20520;-74
2022/12/22 08:20:03;;;;;;;39.47;11.13;;;;;;;8.26;100.00;99534.63;5118995;28;20047;-71
2022/12/22 08:22:29;;;;;;;44.25;12.27;;;;;;;8.35;100.00;99526.13;5104505;28;20027;-73
2022/12/22 08:24:55;;;;;;;43.85;9.75;;;;;;;8.32;100.00;99539.13;5103643;28;20089;-68
2022/12/22 08:27:43;;;;;;;40.47;10.55;;;;;;;8.41;100.00;99533.34;5110132;28;20305;-69
2022/12/22 08:30:10;;;;;;;57.20;12.35;;;;;;;8.43;100.00;99536.59;5077384;28;20035;-69
2022/12/22 08:32:36;;;;;;;43.30;10.52;;;;;;;8.49;100.00;99526.06;5094554;28;20134;-67
2022/12/22 08:35:03;;;;;;;43.92;10.90;;;;;;;8.45;100.00;99523.00;5096057;28;20039;-71
2022/12/22 08:37:32;;;;;;;43.92;10.80;;;;;;;8.45;100.00;99531.84;5096206;28;20036;-71
2022/12/22 08:40:03;;;;;;;36.92;10.70;;;;;;;8.49;100.00;99528.75;5091494;28;20040;-71
2022/12/22 08:42:29;;;;;;;29.13;10.32;;;;;;;8.46;100.00;99530.00;5080049;28;20066;-71
2022/12/22 08:44:54;;;;;;;40.42;10.70;;;;;;;8.47;100.00;99507.50;5096168;28;20044;-72
2022/12/22 08:47:21;;;;;;;43.35;10.55;;;;;;;8.55;100.00;99528.69;5097128;28;20635;-72
2022/12/22 08:49:48;;;;;;;31.33;8.88;;;;;;;8.62;100.00;99532.16;5078046;28;20545;-73
2022/12/22 08:52:14;;;;;;;44.40;10.23;;;;;;;8.65;100.00;99521.00;5078279;28;20061;-72
2022/12/22 08:54:40;;;;;;;41.38;9.80;;;;;;;8.68;100.00;99525.09;5077518;28;20038;-71
2022/12/22 08:57:05;;;;;;;32.92;9.77;;;;;;;8.44;100.00;99508.78;5079564;28;20024;-71
2022/12/22 08:59:30;;;;;;;46.13;10.13;;;;;;;8.54;100.00;99528.91;5063276;28;20423;-68
2022/12/22 09:01:56;;;;;;;36.85;10.10;;;;;;;8.49;100.00;99524.19;5062411;28;20044;-71
2022/12/22 09:04:23;;;;;;;39.22;10.02;;;;;;;8.52;100.00;99512.22;5113808;28;20058;-70
2022/12/22 09:06:52;;;;;;;39.03;10.45;;;;;;;8.43;100.00;99493.72;5105227;28;20157;-69
2022/12/22 09:09:18;;;;;;;30.27;9.88;;;;;;;8.50;100.00;99517.78;5105727;28;20043;-69
2022/12/22 09:11:43;;;;;;;36.30;10.57;;;;;;;8.58;100.00;99519.41;5113912;28;20095;-68
2022/12/22 09:14:11;;;;;;;39.03;11.05;;;;;;;8.43;100.00;99483.00;5101018;28;20127;-69
2022/12/22 09:16:38;;;;;;;38.72;10.18;;;;;;;8.61;100.00;99513.56;5093744;28;20368;-71
2022/12/22 09:19:05;;;;;;;39.75;9.27;;;;;;;8.68;100.00;99515.19;5106830;28;20046;-70
2022/12/22 09:21:30;;;;;;;29.63;9.68;;;;;;;8.73;100.00;99514.53;5102917;28;20035;-69
2022/12/22 09:23:57;;;;;;;35.95;9.35;;;;;;;8.68;100.00;99512.50;5111188;28;20040;-71
2022/12/22 09:26:24;;;;;;;36.53;9.63;;;;;;;8.77;100.00;99507.66;5101253;28;20050;-70
2022/12/22 09:28:50;;;;;;;38.78;9.43;;;;;;;8.77;100.00;99505.00;5108611;28;20034;-70
2022/12/22 09:31:16;;;;;;;39.25;10.20;;;;;;;8.79;100.00;99504.78;5107292;28;20457;-69
2022/12/22 09:33:41;;;;;;;35.42;9.27;;;;;;;8.72;100.00;99496.81;5101168;28;20108;-69
2022/12/22 09:36:09;;;;;;;29.90;9.07;;;;;;;8.85;100.00;99495.88;5115700;28;20038;-68
2022/12/22 09:38:36;;;;;;;38.90;8.88;;;;;;;8.85;100.00;99499.38;5106046;28;20100;-69
2022/12/22 09:41:08;;;;;;;35.00;10.55;;;;;;;8.85;100.00;99501.22;5109286;28;20107;-70
2022/12/22 09:43:33;;;;;;;41.13;9.13;;;;;;;8.83;100.00;99497.94;5114834;28;20035;-70
2022/12/22 09:45:59;;;;;;;36.72;9.18;;;;;;;8.62;100.00;99475.03;5102070;28;20032;-70
2022/12/22 09:48:32;;;;;;;41.28;9.43;;;;;;;8.73;100.00;99498.44;5098890;28;20299;-70
2022/12/22 09:50:58;;;;;;;37.22;8.75;;;;;;;8.72;100.00;99499.47;5108398;28;20378;-70
2022/12/22 09:53:23;;;;;;;37.90;10.18;;;;;;;8.73;100.00;99503.78;5108273;28;20035;-69
2022/12/22 09:55:52;;;;;;;35.70;9.95;;;;;;;8.77;100.00;99490.75;5115026;28;20039;-70
2022/12/22 09:58:34;;;;;;;35.20;8.75;;;;;;;8.67;100.00;99465.25;5103064;28;20035;-69
2022/12/22 10:01:06;;;;;;;30.30;8.68;;;;;;;8.76;100.00;99484.59;5110855;28;20027;-69
2022/12/22 10:03:37;;;;;;;34.50;9.63;;;;;;;8.78;100.00;99477.16;5112738;28;20031;-70
2022/12/22 10:06:22;;;;;;;38.95;8.65;;;;;;;8.83;100.00;99481.84;5103793;28;20032;-69
2022/12/22 10:08:48;;;;;;;32.67;9.30;;;;;;;8.83;100.00;99463.88;5112747;28;20024;-69
2022/12/22 10:11:16;;;;;;;34.05;8.95;;;;;;;8.89;100.00;99481.78;5111889;28;20062;-70
2022/12/22 10:13:43;;;;;;;32.20;9.43;;;;;;;8.74;100.00;99484.00;5105178;28;20060;-69
2022/12/22 10:16:19;;;;;;;33.00;9.85;;;;;;;8.79;100.00;99475.28;5118565;28;20031;-72
2022/12/22 10:19:09;;;;;;;37.70;11.23;;;;;;;8.75;100.00;99468.72;5106488;28;20031;-71
2022/12/22 10:21:35;;;;;;;34.80;12.23;;;;;;;8.61;100.00;99441.19;5094623;28;20036;-71
2022/12/22 10:24:17;;;;;;;37.58;12.60;;;;;;;8.69;100.00;99465.88;5098471;28;20062;-74
2022/12/22 10:26:43;;;;;;;42.03;13.13;;;;;;;8.73;100.00;99468.13;5107426;28;20028;-72
2022/12/22 10:29:14;;;;;;;46.90;13.45;;;;;;;8.38;100.00;99421.19;5111472;28;20076;-72
2022/12/22 10:32:00;;;;;;;41.80;13.88;;;;;;;8.67;100.00;99451.03;5115613;28;20032;-71
2022/12/22 10:34:25;;;;;;;42.97;14.13;;;;;;;8.60;100.00;99439.56;5089254;28;20073;-71
2022/12/22 10:36:57;;;;;;;47.58;14.05;;;;;;;8.46;100.00;99423.56;5111342;28;20042;-72
2022/12/22 10:39:29;;;;;;;43.65;14.00;;;;;;;8.70;100.00;99439.88;5112230;28;20087;-73
2022/12/22 10:42:08;;;;;;;45.58;13.35;;;;;;;8.67;100.00;99434.94;5103599;28;20056;-71
2022/12/22 10:44:36;;;;;;;48.80;13.75;;;;;;;8.83;100.00;99450.47;5089378;28;20032;-72
2022/12/22 10:47:31;;;;;;;44.05;13.07;;;;;;;8.78;100.00;99447.66;5110729;28;20402;-73
2022/12/22 10:50:01;;;;;;;43.10;13.07;;;;;;;8.78;100.00;99436.91;5093412;28;20039;-71
2022/12/22 10:52:29;;;;;;;42.60;13.15;;;;;;;8.75;100.00;99448.09;5105394;28;20035;-71
2022/12/22 10:55:17;;;;;;;41.95;13.93;;;;;;;8.75;100.00;99437.38;5112564;28;20489;-72
2022/12/22 10:57:45;;;;;;;51.45;13.90;;;;;;;8.73;100.00;99427.88;5115478;28;20034;-71
2022/12/22 11:00:30;;;;;;;41.72;12.48;;;;;;;8.72;100.00;99434.31;5101762;28;20127;-72
2022/12/22 11:03:01;;;;;;;40.67;11.88;;;;;;;8.67;100.00;99424.22;5093668;28;20038;-71
2022/12/22 11:05:27;;;;;;;41.83;12.10;;;;;;;8.61;100.00;99414.38;5115509;28;20387;-71
2022/12/22 11:07:59;;;;;;;40.88;11.27;;;;;;;8.67;100.00;99419.66;5087663;28;20063;-72
2022/12/22 11:10:50;;;;;;;37.55;10.75;;;;;;;8.73;100.00;99433.25;5069851;28;20028;-72
2022/12/22 11:13:38;;;;;;;33.45;9.77;;;;;;;8.78;100.00;99431.56;5107951;28;20059;-72
2022/12/22 11:16:14;;;;;;;46.00;10.85;;;;;;;8.77;100.00;99424.53;5116874;28;20037;-72
2022/12/22 11:19:24;;;;;;;43.95;10.30;;;;;;;8.77;100.00;99429.09;5108468;28;20027;-71
2022/12/22 11:21:58;;;;;;;44.58;11.18;;;;;;;8.77;100.00;99429.09;5096297;28;20144;-71
2022/12/22 11:24:30;;;;;;;33.00;10.05;;;;;;;8.69;100.00;99424.81;5088597;28;20028;-71
2022/12/22 11:27:32;;;;;;;50.00;10.75;;;;;;;8.68;100.00;99413.28;5114034;28;20024;-72
2022/12/22 11:30:27;;;;;;;39.72;10.65;;;;;;;8.62;100.00;99410.66;5101751;28;20455;-71
2022/12/22 11:33:15;;;;;;;48.17;10.18;;;;;;;8.64;100.00;99412.09;5081687;28;20043;-71
2022/12/22 11:35:46;;;;;;;50.05;11.63;;;;;;;8.61;100.00;99403.66;5113715;28;20115;-74
2022/12/22 11:38:30;;;;;;;43.53;10.02;;;;;;;8.68;100.00;99420.53;5102580;28;20032;-73
2022/12/22 11:41:20;;;;;;;37.88;9.93;;;;;;;8.60;100.00;99396.66;5111459;28;20042;-73
2022/12/22 11:44:03;;;;;;;37.70;9.57;;;;;;;8.64;100.00;99397.84;5114675;28;20027;-71
2022/12/22 11:46:43;;;;;;;42.20;9.88;;;;;;;8.56;100.00;99400.81;5087196;28;20023;-71
2022/12/22 11:49:47;;;;;;;39.28;9.60;;;;;;;8.60;100.00;99391.28;5106831;28;20046;-71
2022/12/22 11:52:50;;;;;;;37.15;9.88;;;;;;;8.67;100.00;99387.50;5075842;28;20068;-71
2022/12/22 11:55:33;;;;;;;31.20;9.05;;;;;;;8.60;100.00;99392.09;5062616;28;20074;-73
2022/12/22 11:58:43;;;;;;;38.92;9.45;;;;;;;8.68;100.00;99388.34;5075523;28;20036;-72
2022/12/22 12:01:42;;;;;;;48.90;9.45;;;;;;;8.75;100.00;99394.44;5075989;28;20075;-71
2022/12/22 12:04:38;;;;;;;42.97;10.02;;;;;;;8.68;100.00;99391.84;5076521;28;20170;-73
2022/12/22 12:07:08;;;;;;;38.13;9.75;;;;;;;8.67;100.00;99381.31;5063358;28;20108;-72
2022/12/22 12:09:44;;;;;;;40.50;8.68;;;;;;;8.50;100.00;99356.13;5084474;28;20035;-72
2022/12/22 12:12:31;;;;;;;36.63;8.50;;;;;;;8.63;100.00;99377.44;5093603;28;20069;-72
2022/12/22 12:15:24;;;;;;;46.13;10.07;;;;;;;8.63;100.00;99382.81;5093652;28;20075;-71
2022/12/22 12:18:03;;;;;;;43.45;9.88;;;;;;;8.59;100.00;99378.94;5069634;28;20044;-73
2022/12/22 12:20:57;;;;;;;32.15;8.98;;;;;;;8.68;100.00;99378.44;5060257;28;20027;-72
2022/12/22 12:23:26;;;;;;;38.53;9.18;;;;;;;8.70;100.00;99370.16;5088030;28;20052;-73
2022/12/22 12:25:57;;;;;;;32.75;8.75;;;;;;;8.67;100.00;99363.34;5113194;28;20039;-73
2022/12/22 12:28:43;;;;;;;36.30;8.82;;;;;;;8.66;100.00;99355.56;5081358;28;20054;-73
2022/12/22 12:31:12;;;;;;;35.22;8.88;;;;;;;8.79;100.00;99362.63;5107425;28;20389;-72
2022/12/22 12:33:45;;;;;;;39.80;9.45;;;;;;;8.82;100.00;99357.66;5104125;28;20398;-72
2022/12/22 12:36:38;;;;;;;45.50;10.60;;;;;;;8.91;100.00;99361.69;5123010;28;20039;-71
2022/12/22 12:39:26;;;;;;;43.40;8.98;;;;;;;8.85;100.00;99356.38;5116976;28;20031;-69
2022/12/22 12:42:10;;;;;;;40.90;8.13;;;;;;;8.87;100.00;99365.00;5112222;28;20032;-71
2022/12/22 12:44:37;;;;;;;34.78;9.27;;;;;;;8.86;100.00;99363.38;5104688;28;20008;-72
2022/12/22 12:47:02;;;;;;;41.35;9.23;;;;;;;8.81;100.00;99356.03;5128143;28;20039;-72
2022/12/22 12:49:33;;;;;;;44.10;8.82;;;;;;;8.88;100.00;99359.44;5122024;28;20040;-70
2022/12/22 12:52:03;;;;;;;42.53;9.45;;;;;;;8.82;100.00;99357.66;5132238;28;20039;-71
2022/12/22 12:54:29;;;;;;;37.28;9.15;;;;;;;8.82;100.00;99352.28;5118803;28;20100;-71
2022/12/22 12:57:09;;;;;;;37.47;10.07;;;;;;;8.85;100.00;99349.16;5117140;28;20016;-70
2022/12/22 12:59:43;;;;;;;43.63;10.38;;;;;;;8.83;100.00;99343.19;5118325;28;20064;-69
2022/12/22 13:02:27;;;;;;;51.45;11.10;;;;;;;8.93;100.00;99345.34;5107087;28;20400;-67
2022/12/22 13:05:16;;;;;;;38.67;9.10;;;;;;;8.90;100.00;99337.75;5121016;28;20024;-69
2022/12/22 13:08:10;;;;;;;36.92;9.65;;;;;;;8.86;100.00;99336.56;5123204;28;20023;-69
2022/12/22 13:10:46;;;;;;;38.67;9.77;;;;;;;8.79;100.00;99333.13;5099710;28;20004;-69
2022/12/22 13:13:32;;;;;;;37.97;9.32;;;;;;;8.80;100.00;99340.94;5118420;28;20024;-70
2022/12/22 13:16:01;;;;;;;41.15;9.52;;;;;;;8.86;100.00;99339.25;5124450;28;20039;-69
2022/12/22 13:18:29;;;;;;;33.40;8.68;;;;;;;8.81;100.00;99339.94;5095240;28;20019;-70
2022/12/22 13:20:58;;;;;;;38.28;9.00;;;;;;;8.82;100.00;99335.38;5122355;28;20024;-71
2022/12/22 13:23:28;;;;;;;40.60;9.05;;;;;;;8.84;100.00;99331.44;5120294;28;20023;-70
2022/12/22 13:26:01;;;;;;;35.50;9.45;;;;;;;8.83;100.00;99332.47;5112499;28;20028;-70
2022/12/22 13:28:28;;;;;;;33.83;9.02;;;;;;;8.80;100.00;99324.84;5095981;28;20016;-69
2022/12/22 13:31:05;;;;;;;52.08;10.27;;;;;;;8.68;100.00;99300.66;5120679;28;20079;-69
2022/12/22 13:33:37;;;;;;;39.85;9.90;;;;;;;8.79;100.00;99320.53;5120047;28;20089;-69
2022/12/22 13:36:05;;;;;;;39.13;9.98;;;;;;;8.65;100.00;99290.38;5111361;28;20020;-70
2022/12/22 13:38:33;;;;;;;36.55;8.73;;;;;;;8.77;100.00;99327.16;5123110;28;20042;-69
2022/12/22 13:41:01;;;;;;;30.00;9.23;;;;;;;8.83;100.00;99324.41;5116678;28;20023;-70
2022/12/22 13:43:29;;;;;;;44.92;11.00;;;;;;;8.74;100.00;99316.88;5117483;28;20046;-69
2022/12/22 13:46:01;;;;;;;42.92;9.63;;;;;;;8.76;100.00;99320.16;5124217;28;20479;-71
2022/12/22 13:48:36;;;;;;;47.70;9.82;;;;;;;8.77;100.00;99319.13;5093701;28;20030;-70
2022/12/22 13:51:06;;;;;;;43.38;10.57;;;;;;;8.83;100.00;99331.66;5118903;28;20024;-70
2022/12/22 13:53:36;;;;;;;40.72;9.35;;;;;;;8.80;100.00;99326.72;5119635;28;20390;-70
2022/12/22 13:56:06;;;;;;;44.00;10.45;;;;;;;8.79;100.00;99322.41;5110435;28;20043;-70
2022/12/22 13:58:39;;;;;;;39.83;9.90;;;;;;;8.80;100.00;99332.91;5123925;28;20035;-70
2022/12/22 14:01:08;;;;;;;41.77;9.90;;;;;;;8.80;100.00;99337.44;5116626;28;20112;-70
2022/12/22 14:03:34;;;;;;;40.05;10.02;;;;;;;8.82;100.00;99333.50;5114914;28;20036;-70
2022/12/22 14:06:00;;;;;;;39.67;8.95;;;;;;;8.76;100.00;99325.53;5122576;28;20180;-70
2022/12/22 14:08:25;;;;;;;39.25;9.23;;;;;;;8.78;100.00;99324.28;5108606;28;20066;-70
2022/12/22 14:10:53;;;;;;;36.08;9.10;;;;;;;8.79;100.00;99317.88;5100420;28;20042;-70
2022/12/22 14:13:24;;;;;;;39.75;9.70;;;;;;;8.73;100.00;99316.06;5122168;28;20080;-70
2022/12/22 14:15:59;;;;;;;54.45;10.43;;;;;;;8.76;100.00;99315.63;5117382;28;20051;-70
2022/12/22 14:18:25;;;;;;;56.78;9.02;;;;;;;8.66;100.00;99316.13;5128795;28;20028;-70
2022/12/22 14:20:52;;;;;;;45.92;8.85;;;;;;;8.70;100.00;99311.16;5118414;28;20054;-70
2022/12/22 14:23:20;;;;;;;38.92;8.82;;;;;;;8.69;100.00;99317.56;5120495;28;20117;-72
2022/12/22 14:25:48;;;;;;;39.95;8.90;;;;;;;8.68;100.00;99315.94;5125545;28;20018;-70
2022/12/22 14:28:19;;;;;;;40.63;8.80;;;;;;;8.73;100.00;99315.25;5111019;28;20076;-70
2022/12/22 14:30:49;;;;;;;35.00;8.00;;;;;;;8.72;100.00;99313.63;5119931;28;20439;-70
2022/12/22 14:33:26;;;;;;;43.67;9.00;;;;;;;8.67;100.00;99304.38;5112547;28;20085;-70
2022/12/22 14:36:23;;;;;;;47.17;8.10;;;;;;;8.65;100.00;99305.66;5107645;28;20027;-70
2022/12/22 14:38:53;;;;;;;37.58;8.07;;;;;;;8.63;100.00;99297.00;5095424;28;20028;-70
2022/12/22 14:44:17;;;;;;;38.55;6.05;;;;;;;8.58;100.00;99291.50;5116292;28;20030;-69
2022/12/22 14:46:44;;;;;;;39.65;6.07;;;;;;;8.50;100.00;99273.03;5105385;28;20051;-69
2022/12/22 14:49:13;;;;;;;39.00;5.57;;;;;;;8.64;100.00;99286.06;5109881;28;20024;-69
2022/12/22 14:51:39;;;;;;;45.47;5.82;;;;;;;8.64;100.00;99286.06;5101522;28;20466;-69
2022/12/22 14:54:06;;;;;;;37.00;5.95;;;;;;;8.66;100.00;99275.09;5116972;28;20035;-69
2022/12/22 14:56:32;;;;;;;37.55;6.00;;;;;;;8.69;100.00;99288.06;5102982;28;20060;-69
2022/12/22 14:59:10;;;;;;;36.78;5.95;;;;;;;8.73;100.00;99275.03;5111191;28;20028;-69
2022/12/22 15:01:37;;;;;;;34.65;5.43;;;;;;;8.75;100.00;99287.19;5111765;28;20024;-70
2022/12/22 15:04:15;;;;;;;36.05;5.32;;;;;;;8.74;100.00;99271.28;5102176;28;20028;-69
2022/12/22 15:06:44;;;;;;;37.97;5.63;;;;;;;8.75;100.00;99275.63;5113395;28;20024;-69
2022/12/22 15:09:12;;;;;;;33.15;5.32;;;;;;;8.81;100.00;99267.50;5108010;28;20020;-69
2022/12/22 15:12:03;;;;;;;34.08;5.32;;;;;;;8.80;100.00;99263.16;5105154;28;20056;-69
2022/12/22 15:14:33;;;;;;;37.30;5.88;;;;;;;8.75;100.00;99270.28;5078400;28;20044;-69
2022/12/22 15:17:02;;;;;;;33.20;5.55;;;;;;;8.77;100.00;99266.31;5111014;28;20039;-69